Terminal Aerodrome Forecast
Issued by NWS

Home | Current Version | Previous Version | Text Only | Print | Product List | Glossary On
Versions: 1 2 3 4 5 6 7 8 9 10 11 12 13
000
FTUS45 KREV 171720
TAFCXP
TAF
KCXP 171720Z 1718/1818 VRB03KT P6SM FEW110
     FM172200 35008KT P6SM SCT120
     FM180400 VRB03KT P6SM SKC=

USA.gov is the U.S. government's official web portal to all federal, state and local government web resources and services.